sensor_id;sensor_type;location;lat;lon;timestamp;temperature;humidity
22442;DHT22;11388;54.456;9.752;2024-01-06T07:39:21;1.80;99.90
22442;DHT22;11388;54.456;9.752;2024-01-06T07:44:38;2.00;99.90
22442;DHT22;11388;54.456;9.752;2024-01-06T07:47:04;1.90;99.90
22442;DHT22;11388;54.456;9.752;2024-01-06T07:49:32;1.90;99.90
22442;DHT22;11388;54.456;9.752;2024-01-06T07:52:24;1.90;99.90
22442;DHT22;11388;54.456;9.752;2024-01-06T07:55:11;1.90;99.90
22442;DHT22;11388;54.456;9.752;2024-01-06T07:57:43;1.90;99.90
22442;DHT22;11388;54.456;9.752;2024-01-06T08:00:21;1.90;99.90
22442;DHT22;11388;54.456;9.752;2024-01-06T08:05:29;1.90;99.90
22442;DHT22;11388;54.456;9.752;2024-01-06T08:08:00;1.90;99.90
22442;DHT22;11388;54.456;9.752;2024-01-06T08:10:31;1.90;99.90
22442;DHT22;11388;54.456;9.752;2024-01-06T08:13:00;2.00;99.90
22442;DHT22;11388;54.456;9.752;2024-01-06T08:36:22;2.00;99.90
22442;DHT22;11388;54.456;9.752;2024-01-06T09:52:41;2.40;99.90
22442;DHT22;11388;54.456;9.752;2024-01-06T13:12:00;1.80;99.90
22442;DHT22;11388;54.456;9.752;2024-01-06T13:14:37;1.80;99.90
22442;DHT22;11388;54.456;9.752;2024-01-06T13:17:06;1.80;99.90
22442;DHT22;11388;54.456;9.752;2024-01-06T13:19:34;1.90;99.90
22442;DHT22;11388;54.456;9.752;2024-01-06T13:22:06;1.80;99.90
22442;DHT22;11388;54.456;9.752;2024-01-06T13:24:37;1.90;99.90
22442;DHT22;11388;54.456;9.752;2024-01-06T13:27:11;1.90;99.90
22442;DHT22;11388;54.456;9.752;2024-01-06T13:29:40;1.80;99.90
22442;DHT22;11388;54.456;9.752;2024-01-06T13:32:44;1.80;99.90
22442;DHT22;11388;54.456;9.752;2024-01-06T13:39:17;1.80;99.90
22442;DHT22;11388;54.456;9.752;2024-01-06T13:57:17;1.80;99.90
22442;DHT22;11388;54.456;9.752;2024-01-06T13:59:49;1.80;99.90
22442;DHT22;11388;54.456;9.752;2024-01-06T14:02:23;1.80;99.90
22442;DHT22;11388;54.456;9.752;2024-01-06T14:05:02;1.80;99.90
22442;DHT22;11388;54.456;9.752;2024-01-06T14:07:37;1.80;99.90
22442;DHT22;11388;54.456;9.752;2024-01-06T14:10:30;1.80;99.90
22442;DHT22;11388;54.456;9.752;2024-01-06T14:44:36;1.80;99.90
22442;DHT22;11388;54.456;9.752;2024-01-06T14:47:02;1.80;99.90
22442;DHT22;11388;54.456;9.752;2024-01-06T14:51:56;1.80;99.90
22442;DHT22;11388;54.456;9.752;2024-01-06T14:54:29;1.80;99.90
22442;DHT22;11388;54.456;9.752;2024-01-06T14:56:58;1.80;99.90
22442;DHT22;11388;54.456;9.752;2024-01-06T14:59:24;1.80;99.90
22442;DHT22;11388;54.456;9.752;2024-01-06T15:05:14;1.80;99.90
22442;DHT22;11388;54.456;9.752;2024-01-06T15:07:48;1.80;99.90
22442;DHT22;11388;54.456;9.752;2024-01-06T15:10:50;1.80;99.90
22442;DHT22;11388;54.456;9.752;2024-01-06T15:13:15;1.70;99.90
22442;DHT22;11388;54.456;9.752;2024-01-06T15:15:47;1.80;99.90
22442;DHT22;11388;54.456;9.752;2024-01-06T15:18:20;1.80;99.90
22442;DHT22;11388;54.456;9.752;2024-01-06T15:21:20;1.70;99.90
22442;DHT22;11388;54.456;9.752;2024-01-06T15:23:48;1.70;99.90
22442;DHT22;11388;54.456;9.752;2024-01-06T15:26:24;1.70;99.90
22442;DHT22;11388;54.456;9.752;2024-01-06T15:28:50;1.70;99.90
22442;DHT22;11388;54.456;9.752;2024-01-06T15:31:26;1.70;99.90
22442;DHT22;11388;54.456;9.752;2024-01-06T15:33:59;1.70;99.90
22442;DHT22;11388;54.456;9.752;2024-01-06T15:36:27;1.60;99.90
22442;DHT22;11388;54.456;9.752;2024-01-06T15:39:03;1.70;99.90
22442;DHT22;11388;54.456;9.752;2024-01-06T15:41:29;1.60;99.90
22442;DHT22;11388;54.456;9.752;2024-01-06T15:44:00;1.70;99.90
22442;DHT22;11388;54.456;9.752;2024-01-06T15:49:33;1.60;99.90
22442;DHT22;11388;54.456;9.752;2024-01-06T15:52:10;1.60;99.90
22442;DHT22;11388;54.456;9.752;2024-01-06T15:57:38;1.60;99.90
22442;DHT22;11388;54.456;9.752;2024-01-06T16:02:54;1.60;99.90
22442;DHT22;11388;54.456;9.752;2024-01-06T16:05:45;1.70;99.90
22442;DHT22;11388;54.456;9.752;2024-01-06T16:08:13;1.60;99.90
22442;DHT22;11388;54.456;9.752;2024-01-06T16:10:42;1.60;99.90
22442;DHT22;11388;54.456;9.752;2024-01-06T16:13:13;1.60;99.90
22442;DHT22;11388;54.456;9.752;2024-01-06T16:15:39;1.60;99.90
22442;DHT22;11388;54.456;9.752;2024-01-06T16:18:05;1.60;99.90
22442;DHT22;11388;54.456;9.752;2024-01-06T16:20:34;1.50;99.90
22442;DHT22;11388;54.456;9.752;2024-01-06T16:25:37;1.50;99.90
22442;DHT22;11388;54.456;9.752;2024-01-06T16:28:06;1.60;99.90
22442;DHT22;11388;54.456;9.752;2024-01-06T16:30:45;1.50;99.90
22442;DHT22;11388;54.456;9.752;2024-01-06T16:35:52;1.50;99.90
22442;DHT22;11388;54.456;9.752;2024-01-06T16:38:21;1.50;99.90
22442;DHT22;11388;54.456;9.752;2024-01-06T16:40:47;1.50;99.90
22442;DHT22;11388;54.456;9.752;2024-01-06T16:43:16;1.60;99.90
22442;DHT22;11388;54.456;9.752;2024-01-06T16:45:44;1.50;99.90
22442;DHT22;11388;54.456;9.752;2024-01-06T16:55:01;1.60;99.90
22442;DHT22;11388;54.456;9.752;2024-01-06T16:57:27;1.50;99.90
22442;DHT22;11388;54.456;9.752;2024-01-06T17:00:02;1.50;99.90
22442;DHT22;11388;54.456;9.752;2024-01-06T17:02:33;1.50;99.90
22442;DHT22;11388;54.456;9.752;2024-01-06T17:05:02;1.50;99.90
22442;DHT22;11388;54.456;9.752;2024-01-06T17:10:50;1.50;99.90
22442;DHT22;11388;54.456;9.752;2024-01-06T17:16:04;1.50;99.90
22442;DHT22;11388;54.456;9.752;2024-01-06T17:18:44;1.50;99.90
22442;DHT22;11388;54.456;9.752;2024-01-06T17:21:12;1.50;99.90
22442;DHT22;11388;54.456;9.752;2024-01-06T17:23:43;1.50;99.90
22442;DHT22;11388;54.456;9.752;2024-01-06T17:26:13;1.40;99.90
22442;DHT22;11388;54.456;9.752;2024-01-06T17:29:02;1.40;99.90
22442;DHT22;11388;54.456;9.752;2024-01-06T17:31:28;1.50;99.90
22442;DHT22;11388;54.456;9.752;2024-01-06T17:34:00;1.40;99.90
22442;DHT22;11388;54.456;9.752;2024-01-06T17:37:06;1.40;99.90
22442;DHT22;11388;54.456;9.752;2024-01-06T17:39:32;1.50;99.90
22442;DHT22;11388;54.456;9.752;2024-01-06T17:45:45;1.50;99.90
22442;DHT22;11388;54.456;9.752;2024-01-06T17:52:21;1.50;99.90
